Time;durP1;ratioP1;P1;durP2;ratioP2;P2;SDS_P1;SDS_P2;PMS_P1;PMS_P2;Temp;Humidity;BMP_temperature;BMP_pressure;BME280_temperature;BME280_humidity;BME280_pressure;Samples;Min_cycle;Max_cycle;Signal;HPM_P1;HPM_P2
2023/04/11 00:01:48;;;;;;;7.60;4.32;;;9.10;97.30;;;;;;5023852;28;20128;-74
2023/04/11 00:04:15;;;;;;;10.63;4.68;;;9.10;97.40;;;;;;5027235;28;20029;-74
2023/04/11 00:06:41;;;;;;;7.80;4.47;;;9.10;97.40;;;;;;5033078;28;20435;-75
2023/04/11 00:09:07;;;;;;;7.68;4.25;;;9.10;97.40;;;;;;5025497;28;20037;-74
2023/04/11 00:11:32;;;;;;;7.18;4.20;;;9.10;97.50;;;;;;5034161;28;20143;-74
2023/04/11 00:14:00;;;;;;;7.55;4.20;;;9.10;97.50;;;;;;5036431;28;20659;-74
2023/04/11 00:16:25;;;;;;;6.80;4.05;;;9.10;97.60;;;;;;5025638;28;20021;-73
2023/04/11 00:18:51;;;;;;;8.35;4.18;;;9.10;97.70;;;;;;5026533;28;20441;-74
2023/04/11 00:21:16;;;;;;;7.45;4.45;;;9.10;97.70;;;;;;5037291;28;20041;-74
2023/04/11 00:23:42;;;;;;;7.60;4.13;;;9.10;97.70;;;;;;5022701;28;20034;-74
2023/04/11 00:26:07;;;;;;;9.68;4.22;;;9.10;97.70;;;;;;5025919;28;20101;-74
2023/04/11 00:28:34;;;;;;;7.68;4.47;;;9.00;97.70;;;;;;5027540;28;20082;-74
2023/04/11 00:31:01;;;;;;;7.10;3.95;;;9.00;97.70;;;;;;5036881;28;20306;-75
2023/04/11 00:33:26;;;;;;;7.97;4.40;;;9.00;97.70;;;;;;5027180;28;20124;-75
2023/04/11 00:35:52;;;;;;;7.68;3.88;;;9.00;97.70;;;;;;5031668;28;20163;-74
2023/04/11 00:38:17;;;;;;;8.57;3.70;;;9.00;97.80;;;;;;5022315;28;20085;-74
2023/04/11 00:40:43;;;;;;;6.57;3.92;;;9.00;97.80;;;;;;5025131;28;20474;-74
2023/04/11 00:43:08;;;;;;;7.43;3.88;;;9.00;97.80;;;;;;5027250;28;20041;-74
2023/04/11 00:45:34;;;;;;;9.45;3.83;;;8.90;97.70;;;;;;5009952;28;20411;-74
2023/04/11 00:48:00;;;;;;;6.93;3.80;;;8.90;97.60;;;;;;5026089;28;20121;-75
2023/04/11 00:50:26;;;;;;;7.55;4.40;;;8.90;97.70;;;;;;5029038;28;20182;-74
2023/04/11 00:52:54;;;;;;;6.88;4.10;;;8.90;97.70;;;;;;5029400;28;20496;-75
2023/04/11 00:55:20;;;;;;;8.70;4.32;;;8.90;97.70;;;;;;5032325;28;20045;-77
2023/04/11 00:57:45;;;;;;;8.43;4.13;;;8.80;97.60;;;;;;5016554;28;20033;-75
2023/04/11 01:00:12;;;;;;;10.75;4.22;;;8.80;97.50;;;;;;5004402;28;20083;-75
2023/04/11 01:02:41;;;;;;;8.93;4.18;;;8.80;97.60;;;;;;5034660;28;20025;-74
2023/04/11 01:05:08;;;;;;;7.50;4.25;;;8.80;97.60;;;;;;5036767;28;20036;-75
2023/04/11 01:07:35;;;;;;;10.13;4.50;;;8.80;97.60;;;;;;5028144;28;20033;-74
2023/04/11 01:10:01;;;;;;;7.55;4.00;;;8.80;97.50;;;;;;5029506;28;20103;-74
2023/04/11 01:12:29;;;;;;;7.85;3.88;;;8.80;97.60;;;;;;5012730;28;20029;-74
2023/04/11 01:14:55;;;;;;;6.65;3.90;;;8.80;97.50;;;;;;5012304;28;20041;-74
2023/04/11 01:17:21;;;;;;;7.07;4.03;;;8.80;97.50;;;;;;5030439;28;20083;-81
2023/04/11 01:19:46;;;;;;;7.20;4.15;;;8.80;97.40;;;;;;5028854;28;20042;-75
2023/04/11 01:22:16;;;;;;;7.10;4.10;;;8.70;97.50;;;;;;5029014;28;20109;-77
2023/04/11 01:24:42;;;;;;;6.40;4.00;;;8.70;97.50;;;;;;5029464;28;20119;-77
2023/04/11 01:27:09;;;;;;;8.77;3.95;;;8.70;97.60;;;;;;5029388;28;20413;-75
2023/04/11 01:29:34;;;;;;;8.10;3.90;;;8.70;97.60;;;;;;5034475;28;20033;-76
2023/04/11 01:32:00;;;;;;;7.05;3.65;;;8.80;97.70;;;;;;5023958;28;20123;-75
2023/04/11 01:34:27;;;;;;;7.00;3.72;;;8.70;97.80;;;;;;5030776;28;20053;-74
2023/04/11 01:36:53;;;;;;;7.53;3.67;;;8.70;97.90;;;;;;5024507;28;20076;-74
2023/04/11 01:39:19;;;;;;;6.68;4.00;;;8.60;97.90;;;;;;5048742;28;20047;-80
2023/04/11 01:41:45;;;;;;;8.07;4.30;;;8.60;98.00;;;;;;5034737;28;20025;-74
2023/04/11 01:44:12;;;;;;;5.97;3.58;;;8.70;98.10;;;;;;5030307;28;20115;-74
2023/04/11 01:46:38;;;;;;;7.53;4.25;;;8.60;97.90;;;;;;5033645;28;20111;-75
2023/04/11 01:49:04;;;;;;;7.85;3.50;;;8.60;98.10;;;;;;5021706;28;20104;-74
2023/04/11 01:51:30;;;;;;;6.85;3.95;;;8.60;97.80;;;;;;5025787;28;20099;-75
2023/04/11 01:53:55;;;;;;;8.88;3.72;;;8.60;98.00;;;;;;5031717;28;20052;-75
2023/04/11 01:56:21;;;;;;;7.50;3.30;;;8.60;98.00;;;;;;4995729;28;20106;-74
2023/04/11 01:58:46;;;;;;;10.35;3.95;;;8.60;98.10;;;;;;5033299;28;20139;-74
2023/04/11 02:01:13;;;;;;;6.78;3.70;;;8.60;98.10;;;;;;5030580;28;20487;-74
2023/04/11 02:03:38;;;;;;;7.75;3.65;;;8.60;98.00;;;;;;5027814;28;20018;-75
2023/04/11 02:06:04;;;;;;;8.10;4.13;;;8.60;98.00;;;;;;5029553;28;20389;-75
2023/04/11 02:08:30;;;;;;;8.77;4.20;;;8.60;97.80;;;;;;5028587;28;20049;-76
2023/04/11 02:10:55;;;;;;;6.97;4.03;;;8.50;97.80;;;;;;5038926;28;20093;-77
2023/04/11 02:13:21;;;;;;;8.40;4.00;;;8.50;97.90;;;;;;5012708;28;20025;-76
2023/04/11 02:15:46;;;;;;;8.98;4.18;;;8.50;97.90;;;;;;5028923;28;20044;-76
2023/04/11 02:18:12;;;;;;;6.05;3.90;;;8.50;97.90;;;;;;5032646;28;20132;-75
2023/04/11 02:20:39;;;;;;;12.57;4.07;;;8.50;97.90;;;;;;5036107;28;20468;-76
2023/04/11 02:23:05;;;;;;;9.50;4.28;;;8.40;97.80;;;;;;5017222;28;20018;-76
2023/04/11 02:25:30;;;;;;;9.13;4.13;;;8.50;97.80;;;;;;5026011;28;20033;-76
2023/04/11 02:27:56;;;;;;;9.85;4.03;;;8.50;97.80;;;;;;5029019;28;20017;-75
2023/04/11 02:30:22;;;;;;;6.97;3.90;;;8.50;97.80;;;;;;5028401;28;20045;-76
2023/04/11 02:32:50;;;;;;;7.20;4.20;;;8.40;97.60;;;;;;5025340;28;20054;-77
2023/04/11 02:35:16;;;;;;;7.10;3.90;;;8.30;97.80;;;;;;5028287;28;20044;-75
2023/04/11 02:37:42;;;;;;;7.72;3.55;;;8.30;97.70;;;;;;5042651;28;20427;-76
2023/04/11 02:40:08;;;;;;;7.00;2.15;;;8.30;97.30;;;;;;5028652;28;20105;-75
2023/04/11 02:42:34;;;;;;;3.28;1.55;;;7.80;96.20;;;;;;5029312;28;20033;-76
2023/04/11 02:45:00;;;;;;;2.53;1.38;;;7.50;96.80;;;;;;5037340;28;20159;-75
2023/04/11 02:47:26;;;;;;;2.97;1.38;;;7.50;96.70;;;;;;5028253;28;20113;-75
2023/04/11 02:49:52;;;;;;;3.20;1.27;;;7.40;96.10;;;;;;5030308;28;20025;-76
2023/04/11 02:52:17;;;;;;;5.25;1.20;;;7.40;96.40;;;;;;5027493;28;20342;-76
2023/04/11 02:54:43;;;;;;;3.17;1.13;;;7.30;96.50;;;;;;5025288;28;20081;-76
2023/04/11 02:57:09;;;;;;;3.28;1.00;;;7.20;96.60;;;;;;5034128;28;20037;-76
2023/04/11 02:59:34;;;;;;;4.57;1.35;;;7.10;96.40;;;;;;5031373;28;20025;-77
2023/04/11 03:02:00;;;;;;;3.67;1.08;;;7.10;96.40;;;;;;5026083;28;20458;-76
2023/04/11 03:04:26;;;;;;;3.95;1.50;;;7.10;96.80;;;;;;5012192;28;20147;-75
2023/04/11 03:06:52;;;;;;;3.75;1.20;;;7.10;97.20;;;;;;5027018;28;20434;-76
2023/04/11 03:09:18;;;;;;;3.00;1.00;;;7.00;97.40;;;;;;5026485;28;20026;-81
2023/04/11 03:11:43;;;;;;;2.35;0.98;;;6.90;97.60;;;;;;5032664;28;20028;-77
2023/04/11 03:14:09;;;;;;;4.00;1.17;;;6.80;97.70;;;;;;5023415;28;20117;-77
2023/04/11 03:16:34;;;;;;;3.15;0.88;;;6.80;97.70;;;;;;5028212;28;20064;-76
2023/04/11 03:19:00;;;;;;;2.70;1.00;;;6.70;97.60;;;;;;5015312;28;20074;-76
2023/04/11 03:21:26;;;;;;;3.50;1.10;;;6.70;97.50;;;;;;5025628;28;20045;-78
2023/04/11 03:23:51;;;;;;;3.15;0.80;;;6.60;97.50;;;;;;5014105;28;20029;-76
2023/04/11 03:26:17;;;;;;;2.80;0.90;;;6.60;97.30;;;;;;5025566;28;20048;-76
2023/04/11 03:28:46;;;;;;;1.42;0.70;;;6.60;97.40;;;;;;5028383;28;20033;-76
2023/04/11 03:31:12;;;;;;;2.55;0.70;;;6.60;97.30;;;;;;5027919;28;20041;-77
2023/04/11 03:33:38;;;;;;;4.53;0.82;;;6.50;96.90;;;;;;5027117;28;20041;-76
2023/04/11 03:36:04;;;;;;;4.40;0.70;;;6.50;97.00;;;;;;5023940;28;20040;-76
2023/04/11 03:38:30;;;;;;;1.08;0.63;;;6.50;97.00;;;;;;5021329;28;20441;-76
2023/04/11 03:40:55;;;;;;;1.13;0.70;;;6.50;97.20;;;;;;5028418;28;20091;-76
2023/04/11 03:43:21;;;;;;;1.90;0.60;;;6.40;97.30;;;;;;5009621;28;20041;-76
2023/04/11 03:45:46;;;;;;;2.28;0.98;;;6.40;97.30;;;;;;5027404;28;20025;-76
2023/04/11 03:48:12;;;;;;;3.05;1.02;;;6.40;97.40;;;;;;5025543;28;20029;-77
2023/04/11 03:50:38;;;;;;;2.35;0.80;;;6.30;97.40;;;;;;5028227;28;20450;-76
2023/04/11 03:53:03;;;;;;;2.28;0.75;;;6.30;97.50;;;;;;5027984;28;20040;-75
2023/04/11 03:55:29;;;;;;;3.28;0.80;;;6.30;97.50;;;;;;5017591;28;20022;-76
2023/04/11 03:57:55;;;;;;;6.72;0.73;;;6.20;97.50;;;;;;5031860;28;20481;-76
2023/04/11 04:00:21;;;;;;;2.63;0.70;;;6.30;97.60;;;;;;5030134;28;20330;-76
2023/04/11 04:02:46;;;;;;;1.35;0.80;;;6.20;97.60;;;;;;5026939;28;20017;-76
2023/04/11 04:05:12;;;;;;;1.77;0.88;;;6.20;97.70;;;;;;5025932;28;20036;-75
2023/04/11 04:07:37;;;;;;;2.55;0.80;;;6.20;97.70;;;;;;5023014;28;20021;-80
2023/04/11 04:10:03;;;;;;;2.83;0.80;;;6.20;97.60;;;;;;5026791;28;20394;-76
2023/04/11 04:12:29;;;;;;;2.40;0.85;;;6.20;97.40;;;;;;5026124;28;20041;-78
2023/04/11 04:14:54;;;;;;;1.88;0.85;;;6.20;97.20;;;;;;5026821;28;20024;-75
2023/04/11 04:17:20;;;;;;;2.50;1.15;;;6.20;97.10;;;;;;5026371;28;20399;-76
2023/04/11 04:19:46;;;;;;;2.58;0.93;;;6.10;97.10;;;;;;5026599;28;20305;-76
2023/04/11 04:22:12;;;;;;;3.55;0.95;;;6.20;97.10;;;;;;5025034;28;20033;-78
2023/04/11 04:24:40;;;;;;;4.10;1.00;;;6.20;97.20;;;;;;5029270;28;20099;-75
2023/04/11 04:27:09;;;;;;;3.35;1.15;;;6.20;97.00;;;;;;5031148;28;20037;-76
2023/04/11 04:29:38;;;;;;;2.58;1.02;;;6.10;96.90;;;;;;5006151;28;20361;-79
2023/04/11 04:32:10;;;;;;;2.83;1.00;;;6.20;97.00;;;;;;5028526;28;20045;-78
2023/04/11 04:34:48;;;;;;;3.35;1.20;;;6.20;96.80;;;;;;5006343;28;20394;-77
2023/04/11 04:37:21;;;;;;;3.03;1.10;;;6.20;96.90;;;;;;5029769;28;20017;-78
2023/04/11 04:39:55;;;;;;;2.83;1.38;;;6.20;97.00;;;;;;5029313;28;20026;-78
2023/04/11 04:42:25;;;;;;;4.43;1.38;;;6.10;96.90;;;;;;5026652;28;20032;-78
2023/04/11 04:47:21;;;;;;;3.67;1.00;;;6.20;96.90;;;;;;5021971;28;20374;-75
2023/04/11 04:49:46;;;;;;;5.80;1.38;;;6.20;97.00;;;;;;5009216;28;20318;-76
2023/04/11 04:52:13;;;;;;;5.38;1.52;;;6.10;96.90;;;;;;5025915;28;20100;-77
2023/04/11 04:54:39;;;;;;;7.13;1.42;;;6.10;97.00;;;;;;5026593;28;20101;-76
2023/04/11 04:57:06;;;;;;;5.30;1.30;;;6.10;97.10;;;;;;5021857;28;20065;-76
2023/04/11 04:59:31;;;;;;;8.63;1.42;;;6.10;97.10;;;;;;5027631;28;20068;-77
2023/04/11 05:01:57;;;;;;;6.82;1.65;;;6.10;97.10;;;;;;5024369;28;20081;-76
2023/04/11 05:04:22;;;;;;;3.25;1.30;;;6.00;97.30;;;;;;5021326;28;20386;-76
2023/04/11 05:06:48;;;;;;;7.40;1.50;;;6.00;97.30;;;;;;5024772;28;20040;-78
2023/04/11 05:09:15;;;;;;;10.93;1.65;;;6.00;97.40;;;;;;5025025;28;20056;-76
2023/04/11 05:11:40;;;;;;;6.35;1.65;;;6.00;97.50;;;;;;5024057;28;20021;-76
2023/04/11 05:14:06;;;;;;;7.40;1.92;;;6.00;97.50;;;;;;5020950;28;20519;-76
2023/04/11 05:16:31;;;;;;;7.53;1.10;;;6.00;97.60;;;;;;5025562;28;20083;-76
2023/04/11 05:18:57;;;;;;;6.03;1.70;;;5.90;97.70;;;;;;5022742;28;20088;-76
2023/04/11 05:21:22;;;;;;;8.10;1.63;;;6.00;97.70;;;;;;5017811;28;20065;-75
2023/04/11 05:23:48;;;;;;;6.85;1.27;;;5.90;97.70;;;;;;5021842;28;20030;-76
2023/04/11 05:26:13;;;;;;;4.82;1.50;;;5.90;97.70;;;;;;5023594;28;20041;-76
2023/04/11 05:28:40;;;;;;;5.90;1.50;;;5.90;97.90;;;;;;5025424;28;20034;-77
2023/04/11 05:31:07;;;;;;;8.75;2.03;;;5.90;97.90;;;;;;5027532;28;20025;-77
2023/04/11 05:33:33;;;;;;;7.55;1.75;;;6.00;98.00;;;;;;5023510;28;20017;-77
2023/04/11 05:35:59;;;;;;;8.98;1.65;;;6.10;98.10;;;;;;5020644;28;20044;-79
2023/04/11 05:38:24;;;;;;;8.63;1.83;;;6.20;98.00;;;;;;5028491;28;20029;-77
2023/04/11 05:40:50;;;;;;;4.47;1.63;;;6.30;97.60;;;;;;5017038;28;20350;-77
2023/04/11 05:43:15;;;;;;;5.20;2.00;;;6.40;97.60;;;;;;5017165;28;20456;-77
2023/04/11 05:45:46;;;;;;;8.50;1.80;;;6.50;97.40;;;;;;5377814;22;20024;-76
2023/04/11 05:48:12;;;;;;;8.18;1.95;;;6.60;97.10;;;;;;4981737;28;20059;-77
2023/04/11 05:50:37;;;;;;;9.50;1.70;;;6.70;96.90;;;;;;5006330;28;20042;-77
2023/04/11 05:53:03;;;;;;;6.95;2.03;;;6.60;96.90;;;;;;4986554;28;20030;-77
2023/04/11 05:55:29;;;;;;;6.68;1.60;;;6.60;97.10;;;;;;5005412;28;20173;-77
2023/04/11 05:57:54;;;;;;;5.70;1.67;;;6.60;97.20;;;;;;5009382;28;20054;-76
2023/04/11 06:00:20;;;;;;;6.78;1.80;;;6.60;97.20;;;;;;4999110;28;20082;-77
2023/04/11 06:02:47;;;;;;;4.35;1.65;;;6.60;97.30;;;;;;5008570;28;20052;-77
2023/04/11 06:05:15;;;;;;;6.63;1.60;;;6.50;97.20;;;;;;4990674;28;20038;-77
2023/04/11 06:07:40;;;;;;;7.30;1.67;;;6.60;97.30;;;;;;5004251;28;20112;-77
2023/04/11 06:10:07;;;;;;;7.90;1.83;;;6.60;97.40;;;;;;5003335;28;20129;-77
2023/04/11 06:12:33;;;;;;;6.88;1.92;;;6.60;97.30;;;;;;5004730;28;20037;-77
2023/04/11 06:15:01;;;;;;;8.98;2.60;;;6.60;97.40;;;;;;5002911;28;20030;-77
2023/04/11 06:17:27;;;;;;;7.55;1.98;;;6.60;97.20;;;;;;5002144;28;20034;-78
2023/04/11 06:19:52;;;;;;;11.55;2.80;;;6.60;97.10;;;;;;5005544;28;20033;-77
2023/04/11 06:22:18;;;;;;;6.78;2.30;;;6.60;96.90;;;;;;4997170;28;20031;-77
2023/04/11 06:24:46;;;;;;;7.07;2.05;;;6.60;97.10;;;;;;4999767;28;20022;-77
2023/04/11 06:27:13;;;;;;;7.50;1.80;;;6.70;97.30;;;;;;5002516;28;20033;-77
2023/04/11 06:29:40;;;;;;;6.85;2.00;;;6.70;97.30;;;;;;5001281;28;20589;-78
2023/04/11 06:32:06;;;;;;;7.40;2.10;;;6.70;97.20;;;;;;5003865;28;20172;-77
2023/04/11 06:34:33;;;;;;;8.95;2.00;;;6.70;97.10;;;;;;5002458;28;20522;-77
2023/04/11 06:36:58;;;;;;;5.50;1.92;;;6.70;97.30;;;;;;5002489;28;20121;-77
2023/04/11 06:39:24;;;;;;;4.57;2.13;;;6.70;97.20;;;;;;5001308;28;20495;-75
2023/04/11 06:41:50;;;;;;;5.40;2.05;;;6.70;97.20;;;;;;4985856;28;20033;-77
2023/04/11 06:44:15;;;;;;;9.35;3.10;;;6.80;97.30;;;;;;5003574;28;20101;-77
2023/04/11 06:46:41;;;;;;;8.32;2.60;;;6.80;97.20;;;;;;5003246;28;20070;-77
2023/04/11 06:49:07;;;;;;;4.13;1.83;;;6.90;97.30;;;;;;4989100;28;20101;-77
2023/04/11 06:51:34;;;;;;;9.10;2.00;;;6.80;96.70;;;;;;5005966;28;20100;-78
2023/04/11 06:53:59;;;;;;;6.18;1.73;;;6.90;97.00;;;;;;4997764;28;20073;-78
2023/04/11 06:56:25;;;;;;;7.38;1.60;;;6.80;97.00;;;;;;5005013;28;20046;-78
2023/04/11 06:58:50;;;;;;;4.20;1.70;;;6.70;96.50;;;;;;5007357;28;20104;-77
2023/04/11 07:01:16;;;;;;;5.68;2.15;;;6.70;97.00;;;;;;5004333;28;20125;-78
2023/04/11 07:03:42;;;;;;;6.68;1.83;;;6.70;96.90;;;;;;5004411;28;20034;-78
2023/04/11 07:06:08;;;;;;;5.45;1.88;;;6.60;97.80;;;;;;5003754;28;20082;-78
2023/04/11 07:08:33;;;;;;;4.50;1.77;;;6.70;98.20;;;;;;5005190;28;20223;-77
2023/04/11 07:10:59;;;;;;;5.20;1.48;;;6.70;98.40;;;;;;5005704;28;20063;-78
2023/04/11 07:13:24;;;;;;;3.20;1.67;;;6.70;98.30;;;;;;5005756;28;20076;-78
2023/04/11 07:15:50;;;;;;;6.03;1.70;;;6.70;98.20;;;;;;5005631;28;20109;-78
2023/04/11 07:18:15;;;;;;;3.55;1.50;;;6.70;98.50;;;;;;5007132;28;20470;-78
2023/04/11 07:20:41;;;;;;;5.35;1.65;;;6.80;98.70;;;;;;5009258;28;20123;-77
2023/04/11 07:23:06;;;;;;;2.88;1.67;;;6.70;98.20;;;;;;5004264;28;20144;-79
2023/04/11 07:25:32;;;;;;;2.50;1.40;;;6.80;98.50;;;;;;4990090;28;20117;-78
2023/04/11 07:28:06;;;;;;;5.10;1.90;;;6.70;98.10;;;;;;5005693;28;20109;-77
2023/04/11 07:30:32;;;;;;;5.53;1.58;;;6.90;98.20;;;;;;5009387;28;20423;-77
2023/04/11 07:32:57;;;;;;;8.80;1.98;;;6.80;97.80;;;;;;5006818;28;20496;-77
2023/04/11 07:35:23;;;;;;;3.22;1.80;;;6.80;97.70;;;;;;5008223;28;20029;-78
2023/04/11 07:37:48;;;;;;;5.25;2.40;;;6.90;97.80;;;;;;5007162;28;20123;-77
2023/04/11 07:40:14;;;;;;;5.55;2.58;;;7.00;97.50;;;;;;5008433;28;20033;-77
2023/04/11 07:42:40;;;;;;;6.38;2.92;;;7.10;97.90;;;;;;5008479;28;20042;-78
2023/04/11 07:45:06;;;;;;;6.15;3.03;;;7.00;97.70;;;;;;5007736;28;20121;-77
2023/04/11 07:47:32;;;;;;;6.20;3.00;;;7.00;97.50;;;;;;4986498;28;20489;-77
2023/04/11 07:49:57;;;;;;;10.20;3.47;;;7.10;97.50;;;;;;5007603;28;20026;-77
2023/04/11 07:52:26;;;;;;;10.50;3.13;;;7.10;97.50;;;;;;5004713;28;20072;-78
2023/04/11 07:54:52;;;;;;;7.20;3.15;;;7.10;97.50;;;;;;5002973;28;20099;-78
2023/04/11 07:57:17;;;;;;;7.95;4.05;;;7.20;97.50;;;;;;5007306;28;20034;-78
2023/04/11 07:59:43;;;;;;;11.40;4.13;;;7.30;97.60;;;;;;5000685;28;20022;-78
2023/04/11 08:02:08;;;;;;;8.60;4.35;;;7.40;97.50;;;;;;5002072;28;20290;-78
2023/04/11 08:04:36;;;;;;;8.15;4.35;;;7.50;97.40;;;;;;4996676;28;20030;-77
2023/04/11 08:07:02;;;;;;;13.25;6.03;;;7.60;97.10;;;;;;5001000;28;20037;-77
2023/04/11 08:09:28;;;;;;;12.30;5.43;;;7.80;97.00;;;;;;5003721;28;20037;-77
2023/04/11 08:11:55;;;;;;;11.32;5.90;;;7.90;96.80;;;;;;5007280;28;20507;-77
2023/04/11 08:14:21;;;;;;;15.15;6.68;;;8.00;96.40;;;;;;5004886;28;20053;-76
2023/04/11 08:16:46;;;;;;;14.57;6.57;;;8.00;96.10;;;;;;5004548;28;20121;-78
2023/04/11 08:19:12;;;;;;;11.90;6.82;;;8.10;96.10;;;;;;5004368;28;20082;-77
2023/04/11 08:21:37;;;;;;;11.43;6.43;;;8.10;95.50;;;;;;5004144;28;20460;-77
2023/04/11 08:24:03;;;;;;;10.73;6.38;;;8.20;95.60;;;;;;5004225;28;20033;-77
2023/04/11 08:26:29;;;;;;;10.50;6.07;;;8.40;95.40;;;;;;5004143;28;20158;-77
2023/04/11 08:28:54;;;;;;;14.88;5.75;;;8.40;94.40;;;;;;5005265;28;20436;-77
2023/04/11 08:31:20;;;;;;;7.93;4.85;;;8.50;94.30;;;;;;5005860;28;20565;-77
2023/04/11 08:33:45;;;;;;;13.93;5.47;;;8.60;94.40;;;;;;5002696;28;20030;-78
2023/04/11 08:36:11;;;;;;;10.85;5.15;;;8.60;93.80;;;;;;5003823;28;20525;-77
2023/04/11 08:38:37;;;;;;;12.15;5.28;;;8.80;94.40;;;;;;5004138;28;20172;-77
2023/04/11 08:41:03;;;;;;;6.50;4.43;;;8.70;92.50;;;;;;5002353;28;20396;-77
2023/04/11 08:43:31;;;;;;;7.13;3.60;;;8.70;93.60;;;;;;5004598;28;20060;-80
2023/04/11 08:46:02;;;;;;;7.93;3.75;;;8.50;93.00;;;;;;5002364;28;20099;-80
2023/04/11 08:48:28;;;;;;;11.35;4.68;;;8.40;93.80;;;;;;5004809;28;20490;-77
2023/04/11 08:50:53;;;;;;;13.48;4.80;;;8.40;94.40;;;;;;5017609;28;20030;-77
2023/04/11 08:53:21;;;;;;;6.95;3.97;;;8.40;94.70;;;;;;5008778;28;20318;-77
2023/04/11 08:55:47;;;;;;;11.85;4.28;;;8.30;94.90;;;;;;5004524;28;20347;-78
2023/04/11 08:58:13;;;;;;;8.50;4.03;;;8.10;94.40;;;;;;5004545;28;20038;-79
2023/04/11 09:00:39;;;;;;;9.32;3.67;;;8.00;95.60;;;;;;5002264;28;20026;-78
2023/04/11 09:03:06;;;;;;;4.03;2.58;;;7.80;95.50;;;;;;5004040;28;20080;-77
2023/04/11 09:05:39;;;;;;;5.93;2.42;;;7.60;94.70;;;;;;4999084;28;20447;-77
2023/04/11 09:08:10;;;;;;;2.03;1.33;;;7.40;94.90;;;;;;5003788;28;20113;-77
2023/04/11 09:10:37;;;;;;;5.38;1.30;;;7.10;95.20;;;;;;5008602;28;20037;-77
2023/04/11 09:13:26;;;;;;;2.08;1.10;;;6.80;95.60;;;;;;5008814;28;20442;-77
2023/04/11 09:16:05;;;;;;;2.13;1.00;;;6.60;96.30;;;;;;4987215;28;20053;-77
2023/04/11 09:18:39;;;;;;;1.50;1.05;;;6.60;96.20;;;;;;5009215;28;20112;-77
2023/04/11 09:21:06;;;;;;;1.00;0.90;;;6.60;96.00;;;;;;4981119;28;20105;-79
2023/04/11 09:23:33;;;;;;;1.77;0.70;;;6.60;95.90;;;;;;5009633;28;20135;-77
2023/04/11 09:25:58;;;;;;;1.75;0.90;;;6.60;96.30;;;;;;5007491;28;20369;-78
2023/04/11 09:28:24;;;;;;;4.05;1.13;;;6.60;96.20;;;;;;4997741;28;20057;-77
2023/04/11 09:30:51;;;;;;;2.95;0.80;;;6.70;96.40;;;;;;5007559;28;20103;-77
2023/04/11 09:33:22;;;;;;;3.63;0.90;;;6.60;96.10;;;;;;5009001;28;20117;-77
2023/04/11 09:35:49;;;;;;;3.80;1.17;;;6.60;96.30;;;;;;5009307;28;20537;-78
2023/04/11 09:38:30;;;;;;;3.78;0.80;;;6.60;96.50;;;;;;5008054;28;20033;-77
2023/04/11 09:40:56;;;;;;;3.78;1.23;;;6.50;96.20;;;;;;5011848;28;22117;-77
2023/04/11 09:43:22;;;;;;;2.90;1.17;;;6.60;96.60;;;;;;5017444;28;20057;-78
2023/04/11 09:45:47;;;;;;;2.65;1.27;;;6.60;96.70;;;;;;5009599;28;20060;-77
2023/04/11 09:48:14;;;;;;;3.38;1.10;;;6.60;96.40;;;;;;5006373;28;20029;-77
2023/04/11 09:50:41;;;;;;;2.20;1.10;;;6.60;96.60;;;;;;5007719;28;20032;-77
2023/04/11 09:53:06;;;;;;;3.78;1.20;;;6.70;96.90;;;;;;5003078;28;20050;-78
2023/04/11 09:55:32;;;;;;;2.95;1.02;;;6.60;96.80;;;;;;5006216;28;20076;-77
2023/04/11 09:57:58;;;;;;;2.47;1.10;;;6.60;96.80;;;;;;5006824;28;20073;-77
2023/04/11 10:00:31;;;;;;;3.80;1.10;;;6.60;97.00;;;;;;5005770;28;20160;-77
2023/04/11 10:02:56;;;;;;;3.40;1.42;;;6.70;97.30;;;;;;5007863;28;20059;-77
2023/04/11 10:05:25;;;;;;;4.07;1.30;;;6.70;97.00;;;;;;4999427;28;20038;-77
2023/04/11 10:08:09;;;;;;;3.35;1.15;;;6.70;96.80;;;;;;5001723;28;20115;-80
2023/04/11 10:10:35;;;;;;;3.42;1.40;;;6.70;96.70;;;;;;5002735;28;20117;-78
2023/04/11 10:13:00;;;;;;;7.72;1.20;;;6.80;96.40;;;;;;5006579;28;20109;-76
2023/04/11 10:15:26;;;;;;;1.80;1.00;;;6.70;96.00;;;;;;5004322;28;20033;-77
2023/04/11 10:18:11;;;;;;;4.72;1.80;;;6.70;96.10;;;;;;4998765;28;20116;-76
2023/04/11 10:20:44;;;;;;;3.70;1.33;;;6.60;95.70;;;;;;5009091;28;20079;-77
2023/04/11 10:23:10;;;;;;;3.03;1.25;;;6.60;96.10;;;;;;5006249;28;20073;-77
2023/04/11 10:25:47;;;;;;;2.42;1.27;;;6.70;96.20;;;;;;5005474;28;20061;-77
2023/04/11 10:28:32;;;;;;;3.70;1.55;;;6.60;96.40;;;;;;5006697;28;20113;-76
2023/04/11 10:31:11;;;;;;;3.40;1.40;;;6.70;96.40;;;;;;5001557;28;20096;-79
2023/04/11 10:33:38;;;;;;;3.55;1.60;;;6.70;96.40;;;;;;5005021;28;20392;-76
2023/04/11 10:36:05;;;;;;;5.18;2.05;;;6.70;96.20;;;;;;5006166;28;20032;-77
2023/04/11 10:38:39;;;;;;;3.33;1.48;;;6.70;95.50;;;;;;5015583;28;20463;-77
2023/04/11 10:41:26;;;;;;;4.10;1.70;;;6.70;95.50;;;;;;5004802;28;20053;-76
2023/04/11 10:44:15;;;;;;;4.55;2.00;;;6.80;95.70;;;;;;4998146;28;20044;-77
2023/04/11 10:46:52;;;;;;;5.43;1.98;;;7.00;95.50;;;;;;5006301;28;20104;-76
2023/04/11 10:49:38;;;;;;;7.15;2.20;;;7.20;95.50;;;;;;5003692;28;20021;-77
2023/04/11 10:52:17;;;;;;;5.20;1.98;;;7.40;95.50;;;;;;4998523;28;20097;-76
2023/04/11 10:54:45;;;;;;;6.43;1.70;;;7.60;95.10;;;;;;5005944;28;20113;-77
2023/04/11 10:57:10;;;;;;;7.15;2.20;;;8.00;94.30;;;;;;5008063;28;20057;-76
2023/04/11 10:59:36;;;;;;;7.22;2.13;;;8.30;93.60;;;;;;5007328;28;20042;-76
2023/04/11 11:02:02;;;;;;;10.07;2.60;;;8.90;93.80;;;;;;5001808;28;20119;-78
2023/04/11 11:04:35;;;;;;;5.55;2.40;;;9.30;92.40;;;;;;5005438;28;20085;-77
2023/04/11 11:07:06;;;;;;;3.92;1.98;;;9.60;90.20;;;;;;5003793;28;20037;-79
2023/04/11 11:09:32;;;;;;;;;;;9.80;89.40;;;;;;5005117;28;20026;-77
2023/04/11 11:12:11;;;;;;;6.55;1.90;;;9.90;88.00;;;;;;5000556;28;19985;-78
2023/04/11 11:14:38;;;;;;;6.38;1.70;;;10.30;88.50;;;;;;4987448;28;20121;-77
2023/04/11 11:17:04;;;;;;;6.18;1.83;;;10.40;87.20;;;;;;4999046;28;20087;-78
2023/04/11 11:19:30;;;;;;;4.85;1.75;;;10.20;85.80;;;;;;5003543;28;20042;-77
2023/04/11 11:21:58;;;;;;;5.20;1.70;;;10.60;86.80;;;;;;5005311;28;20162;-75
2023/04/11 11:24:27;;;;;;;4.63;1.38;;;10.10;86.90;;;;;;5001311;28;20018;-77
2023/04/11 11:26:54;;;;;;;8.55;1.77;;;9.60;85.10;;;;;;5006029;28;20026;-76
2023/04/11 11:29:39;;;;;;;7.30;1.80;;;9.10;85.30;;;;;;5001027;28;20029;-76
2023/04/11 11:32:05;;;;;;;2.88;1.13;;;8.50;87.80;;;;;;5003156;28;20069;-76
2023/04/11 11:34:33;;;;;;;4.75;1.58;;;7.60;90.60;;;;;;5004133;28;20034;-78
2023/04/11 11:37:00;;;;;;;7.82;1.67;;;7.00;91.30;;;;;;5003490;28;20297;-77
2023/04/11 11:39:28;;;;;;;3.97;1.40;;;6.70;93.80;;;;;;5004738;28;20140;-76
2023/04/11 11:41:54;;;;;;;4.90;1.52;;;6.60;94.60;;;;;;5007270;28;20414;-78
2023/04/11 11:44:25;;;;;;;3.00;1.00;;;6.40;95.20;;;;;;5005603;28;20104;-78
2023/04/11 11:47:11;;;;;;;3.20;1.27;;;6.20;94.70;;;;;;5004157;28;20157;-77
2023/04/11 11:49:55;;;;;;;3.92;1.10;;;6.20;94.40;;;;;;4997364;28;20110;-76
2023/04/11 11:52:33;;;;;;;3.88;1.10;;;6.30;93.90;;;;;;4999505;28;20049;-78
2023/04/11 11:55:04;;;;;;;5.13;1.48;;;6.30;93.50;;;;;;4999726;28;20033;-76
2023/04/11 11:57:30;;;;;;;3.95;1.38;;;6.50;94.10;;;;;;5007239;28;20410;-76
2023/04/11 11:59:57;;;;;;;3.17;1.38;;;6.70;94.00;;;;;;5005066;28;20103;-76
2023/04/11 12:02:24;;;;;;;7.40;1.73;;;7.00;93.90;;;;;;5004794;28;20042;-76
2023/04/11 12:04:58;;;;;;;6.20;1.95;;;7.30;93.20;;;;;;4996031;28;20525;-76
2023/04/11 12:07:24;;;;;;;5.32;1.70;;;7.80;93.20;;;;;;5000090;28;20079;-76
2023/04/11 12:09:58;;;;;;;5.70;1.60;;;8.40;92.30;;;;;;5007153;28;20686;-76
2023/04/11 12:12:23;;;;;;;6.10;2.00;;;9.00;89.60;;;;;;5004706;28;20041;-76
2023/04/11 12:14:53;;;;;;;6.70;1.73;;;9.20;89.10;;;;;;5002456;28;22318;-77
2023/04/11 12:17:18;;;;;;;4.00;1.40;;;9.60;87.90;;;;;;5003171;28;20148;-77
2023/04/11 12:19:44;;;;;;;4.20;1.55;;;9.70;87.20;;;;;;4981733;28;20041;-76
2023/04/11 12:22:09;;;;;;;6.20;1.83;;;10.10;87.60;;;;;;5004408;28;20158;-76
2023/04/11 12:24:35;;;;;;;6.05;1.63;;;10.10;87.70;;;;;;5002093;28;20101;-75
2023/04/11 12:27:00;;;;;;;6.47;1.75;;;9.50;86.80;;;;;;5004924;28;20084;-75
2023/04/11 12:29:26;;;;;;;6.40;2.08;;;9.30;88.00;;;;;;5016594;28;20108;-75
2023/04/11 12:31:51;;;;;;;5.00;1.45;;;9.20;89.40;;;;;;5005696;28;20022;-75
2023/04/11 12:34:17;;;;;;;6.75;1.20;;;8.80;86.30;;;;;;5003130;28;20394;-75
2023/04/11 12:36:42;;;;;;;4.72;1.73;;;8.60;85.40;;;;;;5002285;28;20030;-74
2023/04/11 12:39:08;;;;;;;4.28;1.35;;;8.60;85.60;;;;;;4982761;28;20070;-77
2023/04/11 12:41:33;;;;;;;5.72;1.40;;;8.60;86.50;;;;;;5000647;28;20041;-76
2023/04/11 12:44:01;;;;;;;5.00;1.10;;;8.50;86.40;;;;;;5003491;28;20053;-75
2023/04/11 12:46:26;;;;;;;4.60;1.20;;;8.40;87.30;;;;;;5006154;28;20100;-75
2023/04/11 12:48:52;;;;;;;8.13;1.45;;;8.20;89.20;;;;;;5008304;28;20033;-75
2023/04/11 12:51:17;;;;;;;6.30;1.30;;;8.00;89.00;;;;;;5004851;28;20416;-75
2023/04/11 12:53:43;;;;;;;6.43;1.25;;;7.90;88.50;;;;;;5011024;28;20135;-75
2023/04/11 12:56:08;;;;;;;4.90;1.23;;;8.00;89.70;;;;;;5009220;28;20108;-74
2023/04/11 12:58:34;;;;;;;3.75;1.50;;;8.00;89.60;;;;;;5010067;28;20100;-75